createdAt,value
2023-05-21T00:01:06.492Z,57.10
2023-05-21T00:04:54.091Z,57.10
2023-05-21T00:08:41.303Z,57.00
2023-05-21T00:12:28.513Z,56.80
2023-05-21T00:16:14.745Z,56.80
2023-05-21T00:20:04.887Z,56.80
2023-05-21T00:23:51.237Z,56.70
2023-05-21T00:27:38.979Z,57.40
2023-05-21T00:31:26.285Z,56.60
2023-05-21T00:35:12.643Z,56.50
2023-05-21T00:39:00.117Z,56.40
2023-05-21T00:42:51.282Z,56.20
2023-05-21T00:46:39.115Z,56.20
2023-05-21T00:50:26.987Z,56.10
2023-05-21T00:54:15.536Z,56.10
2023-05-21T00:58:03.498Z,56.00
2023-05-21T01:01:57.000Z,56.00
2023-05-21T01:05:48.131Z,55.80
2023-05-21T01:09:39.722Z,55.70
2023-05-21T01:13:28.928Z,55.70
2023-05-21T01:17:19.912Z,55.70
2023-05-21T01:21:12.734Z,55.60
2023-05-21T01:25:00.724Z,55.50
2023-05-21T01:28:49.956Z,55.50
2023-05-21T01:33:43.314Z,55.50
2023-05-21T01:37:46.585Z,55.70
2023-05-21T01:41:40.675Z,55.40
2023-05-21T01:45:29.823Z,55.30
2023-05-21T01:49:19.324Z,55.20
2023-05-21T01:53:08.719Z,55.30
2023-05-21T01:56:57.162Z,55.10
2023-05-21T02:00:44.155Z,55.10
2023-05-21T02:04:32.606Z,55.10
2023-05-21T02:08:21.774Z,55.00
2023-05-21T02:12:08.378Z,55.00
2023-05-21T02:16:01.044Z,55.00
2023-05-21T02:19:50.306Z,54.90
2023-05-21T02:23:39.559Z,55.00
2023-05-21T02:27:26.224Z,55.00
2023-05-21T02:31:11.740Z,55.00
2023-05-21T02:35:06.562Z,55.00
2023-05-21T02:38:52.367Z,54.90
2023-05-21T02:42:41.528Z,54.90
2023-05-21T02:46:28.522Z,54.90
2023-05-21T02:50:17.120Z,54.90
2023-05-21T02:54:03.468Z,54.90
2023-05-21T02:57:50.382Z,54.90
2023-05-21T03:01:38.025Z,54.80
2023-05-21T03:05:27.015Z,54.80
2023-05-21T03:09:14.086Z,54.70
2023-05-21T03:13:01.930Z,54.70
2023-05-21T03:16:52.785Z,54.70
2023-05-21T03:20:46.221Z,54.70
2023-05-21T03:24:33.858Z,54.70
2023-05-21T03:28:22.592Z,55.40
2023-05-21T03:32:09.687Z,54.70
2023-05-21T03:35:57.623Z,54.60
2023-05-21T03:39:43.693Z,54.60
2023-05-21T03:43:29.703Z,54.60
2023-05-21T03:47:18.236Z,54.60
2023-05-21T03:51:04.883Z,54.50
2023-05-21T03:54:51.096Z,54.60
2023-05-21T03:58:38.317Z,54.50
2023-05-21T04:02:26.582Z,54.50
2023-05-21T04:06:14.746Z,54.40
2023-05-21T04:10:01.172Z,54.50
2023-05-21T04:13:47.153Z,53.70
2023-05-21T04:17:33.799Z,53.60
2023-05-21T04:21:22.025Z,53.20
2023-05-21T04:25:09.190Z,52.60
2023-05-21T04:28:56.454Z,52.40
2023-05-21T04:32:47.751Z,52.70
2023-05-21T04:36:37.691Z,52.80
2023-05-21T04:40:26.723Z,53.90
2023-05-21T04:44:21.167Z,54.70
2023-05-21T04:48:15.057Z,55.40
2023-05-21T04:52:01.601Z,55.70
2023-05-21T04:55:50.607Z,56.00
2023-05-21T04:59:38.321Z,56.20
2023-05-21T05:03:24.749Z,56.20
2023-05-21T05:07:12.141Z,56.30
2023-05-21T05:11:00.144Z,56.30
2023-05-21T05:14:48.358Z,56.40
2023-05-21T05:18:40.205Z,56.40
2023-05-21T05:22:28.115Z,56.40
2023-05-21T05:26:18.840Z,56.30
2023-05-21T05:30:18.276Z,56.40
2023-05-21T05:34:07.533Z,56.20
2023-05-21T05:37:53.976Z,56.30
2023-05-21T05:41:41.315Z,56.30
2023-05-21T05:45:28.583Z,56.40
2023-05-21T05:49:16.266Z,56.40
2023-05-21T05:53:03.852Z,56.50
2023-05-21T05:56:55.089Z,56.40
2023-05-21T06:00:42.902Z,56.50
2023-05-21T06:04:32.328Z,56.40
2023-05-21T06:08:21.108Z,56.40
2023-05-21T06:12:14.960Z,56.40
2023-05-21T06:16:01.631Z,56.30
2023-05-21T06:19:52.403Z,56.30
2023-05-21T06:23:38.585Z,56.40
2023-05-21T06:27:26.427Z,56.40
2023-05-21T06:31:13.941Z,56.40
2023-05-21T06:35:04.409Z,56.40
2023-05-21T06:38:55.467Z,56.40
2023-05-21T06:42:43.191Z,56.40
2023-05-21T06:46:30.691Z,56.50
2023-05-21T06:50:17.546Z,56.50
2023-05-21T06:54:02.559Z,56.50
2023-05-21T06:57:51.091Z,56.50
2023-05-21T07:01:37.827Z,56.50
2023-05-21T07:05:25.641Z,56.50
2023-05-21T07:09:13.131Z,56.50
2023-05-21T07:13:01.076Z,56.50
2023-05-21T07:16:45.096Z,56.70
2023-05-21T07:20:30.953Z,56.60
2023-05-21T07:24:18.129Z,56.60
2023-05-21T07:28:06.644Z,56.60
2023-05-21T07:31:53.789Z,56.60
2023-05-21T07:35:42.121Z,56.60
2023-05-21T07:39:28.045Z,56.60
2023-05-21T07:43:19.024Z,56.70
2023-05-21T07:47:05.684Z,56.70
2023-05-21T07:50:51.811Z,56.70
2023-05-21T07:54:39.897Z,56.70
2023-05-21T07:58:34.632Z,56.80
2023-05-21T08:02:23.369Z,56.80
2023-05-21T08:06:09.190Z,56.90
2023-05-21T08:09:57.314Z,56.90
2023-05-21T08:13:44.750Z,56.90
2023-05-21T08:17:33.212Z,56.90
2023-05-21T08:21:19.069Z,56.90
2023-05-21T08:25:06.468Z,57.00
2023-05-21T08:28:54.042Z,57.10
2023-05-21T08:32:41.271Z,57.20
2023-05-21T08:36:27.196Z,57.30
2023-05-21T08:40:14.025Z,57.40
2023-05-21T08:44:04.513Z,57.40
2023-05-21T08:47:49.914Z,57.50
2023-05-21T08:51:41.091Z,57.50
2023-05-21T08:55:27.384Z,57.80
2023-05-21T08:59:16.400Z,57.70
2023-05-21T09:03:03.751Z,57.60
2023-05-21T09:06:51.204Z,57.70
2023-05-21T09:10:44.533Z,57.40
2023-05-21T09:14:32.188Z,57.10
2023-05-21T09:18:18.476Z,57.20
2023-05-21T09:22:08.104Z,57.40
2023-05-21T09:25:54.388Z,58.20
2023-05-21T09:29:44.741Z,57.70
2023-05-21T09:33:32.467Z,57.80
2023-05-21T09:41:14.689Z,57.90
2023-05-21T09:45:05.893Z,58.00
2023-05-21T09:48:52.603Z,58.10
2023-05-21T09:52:42.305Z,58.10
2023-05-21T09:56:26.862Z,58.10
2023-05-21T10:00:14.844Z,58.20
2023-05-21T10:04:04.071Z,58.20
2023-05-21T10:08:02.454Z,58.20
2023-05-21T10:11:46.681Z,58.30
2023-05-21T10:15:38.410Z,58.40
2023-05-21T10:19:26.081Z,58.50
2023-05-21T10:23:14.552Z,58.50
2023-05-21T10:27:02.085Z,58.50
2023-05-21T10:30:51.009Z,58.50
2023-05-21T10:34:41.647Z,58.60
2023-05-21T10:38:28.561Z,58.60
2023-05-21T10:42:27.680Z,58.70
2023-05-21T10:46:49.243Z,58.70
2023-05-21T10:51:01.742Z,58.80
2023-05-21T10:55:24.652Z,58.80
2023-05-21T10:59:44.768Z,58.80
2023-05-21T11:03:34.342Z,58.80
2023-05-21T11:07:46.570Z,59.00
2023-05-21T11:11:48.146Z,59.00
2023-05-21T11:15:55.385Z,58.80
2023-05-21T11:19:47.275Z,59.00
2023-05-21T11:24:13.357Z,59.10
2023-05-21T11:28:12.116Z,59.10
2023-05-21T11:32:05.630Z,57.90
2023-05-21T11:35:58.638Z,57.70
2023-05-21T11:39:45.268Z,58.30
2023-05-21T11:43:30.100Z,58.60
2023-05-21T11:47:22.832Z,58.70
2023-05-21T11:51:06.758Z,59.00
2023-05-21T11:54:51.742Z,59.00
2023-05-21T11:58:38.265Z,59.10
2023-05-21T12:02:22.111Z,59.10
2023-05-21T12:06:12.884Z,59.20
2023-05-21T12:09:58.773Z,58.80
2023-05-21T12:13:45.575Z,58.70
2023-05-21T12:17:32.877Z,59.10
2023-05-21T12:21:15.214Z,59.20
2023-05-21T12:25:02.824Z,59.40
2023-05-21T12:28:50.903Z,59.50
2023-05-21T12:32:38.050Z,59.60
2023-05-21T12:36:32.898Z,59.60
2023-05-21T12:40:20.358Z,59.70
2023-05-21T12:44:09.200Z,59.80
2023-05-21T12:48:00.260Z,59.80
2023-05-21T12:51:50.275Z,59.80
2023-05-21T12:55:38.919Z,59.90
2023-05-21T12:59:26.575Z,60.00
2023-05-21T13:03:13.556Z,60.00
2023-05-21T13:06:59.755Z,60.10
2023-05-21T13:10:47.298Z,60.10
2023-05-21T13:14:34.343Z,59.40
2023-05-21T13:18:23.347Z,58.50
2023-05-21T13:22:11.724Z,57.90
2023-05-21T13:25:59.295Z,58.20
2023-05-21T13:29:46.155Z,58.60
2023-05-21T13:33:35.714Z,59.40
2023-05-21T13:37:23.714Z,58.90
2023-05-21T13:41:08.998Z,59.00
2023-05-21T13:44:56.798Z,58.20
2023-05-21T13:48:43.722Z,57.50
2023-05-21T13:52:30.625Z,57.60
2023-05-21T13:56:19.200Z,57.80
2023-05-21T14:00:06.957Z,57.80
2023-05-21T14:03:53.411Z,58.00
2023-05-21T14:07:42.242Z,58.30
2023-05-21T14:11:29.463Z,58.50
2023-05-21T14:15:16.755Z,58.70
2023-05-21T14:19:04.523Z,57.50
2023-05-21T14:22:51.670Z,57.50
2023-05-21T14:26:40.786Z,57.80
2023-05-21T14:30:27.167Z,58.10
2023-05-21T14:34:16.284Z,58.40
2023-05-21T14:38:06.651Z,58.60
2023-05-21T14:41:54.265Z,58.80
2023-05-21T14:45:40.828Z,59.00
2023-05-21T14:49:27.523Z,59.20
2023-05-21T14:53:15.879Z,59.40
2023-05-21T14:56:57.762Z,59.60
2023-05-21T15:00:44.226Z,59.60
2023-05-21T15:04:30.575Z,59.70
2023-05-21T15:08:17.670Z,59.70
2023-05-21T15:12:04.562Z,59.80
2023-05-21T15:15:50.750Z,59.80
2023-05-21T15:19:38.046Z,59.90
2023-05-21T15:23:24.661Z,59.90
2023-05-21T15:27:12.964Z,60.00
2023-05-21T15:31:06.070Z,60.00
2023-05-21T15:34:54.848Z,60.10
2023-05-21T15:38:42.878Z,60.10
2023-05-21T15:42:35.940Z,60.10
2023-05-21T15:46:25.926Z,60.20
2023-05-21T15:50:16.209Z,60.20
2023-05-21T15:54:03.872Z,60.20
2023-05-21T15:57:49.700Z,60.30
2023-05-21T16:01:39.596Z,60.30
2023-05-21T16:05:25.568Z,60.40
2023-05-21T16:09:12.652Z,60.30
2023-05-21T16:13:00.037Z,60.30
2023-05-21T16:16:46.898Z,60.30
2023-05-21T16:20:35.436Z,60.30
2023-05-21T16:24:23.560Z,60.40
2023-05-21T16:28:10.367Z,60.50
2023-05-21T16:31:55.366Z,60.50
2023-05-21T16:35:42.264Z,60.50
2023-05-21T16:39:28.754Z,60.60
2023-05-21T16:43:19.821Z,60.50
2023-05-21T16:47:08.666Z,60.50
2023-05-21T16:50:54.797Z,60.50
2023-05-21T16:54:40.907Z,60.50
2023-05-21T16:58:26.715Z,60.50
2023-05-21T17:02:17.215Z,60.50
2023-05-21T17:06:04.731Z,60.60
2023-05-21T17:09:53.289Z,60.60
2023-05-21T17:13:40.706Z,60.60
2023-05-21T17:17:27.537Z,60.60
2023-05-21T17:21:13.541Z,60.70
2023-05-21T17:25:01.775Z,60.70
2023-05-21T17:28:48.962Z,60.70
2023-05-21T17:32:36.742Z,60.70
2023-05-21T17:36:24.867Z,60.70
2023-05-21T17:40:10.957Z,60.80
2023-05-21T17:43:58.032Z,60.80
2023-05-21T17:47:45.233Z,60.80
2023-05-21T17:51:32.581Z,60.80
2023-05-21T17:55:21.053Z,60.90
2023-05-21T17:59:12.608Z,60.90
2023-05-21T18:02:59.509Z,60.90
2023-05-21T18:06:45.315Z,60.90
2023-05-21T18:10:31.784Z,60.90
2023-05-21T18:14:19.512Z,60.90
2023-05-21T18:18:07.119Z,60.90
2023-05-21T18:21:54.846Z,59.70
2023-05-21T18:25:36.616Z,59.50
2023-05-21T18:29:23.066Z,59.70
2023-05-21T18:33:10.463Z,60.00
2023-05-21T18:37:01.952Z,60.10
2023-05-21T18:40:49.785Z,60.20
2023-05-21T18:44:37.014Z,60.20
2023-05-21T18:48:28.226Z,60.20
2023-05-21T18:52:22.008Z,60.30
2023-05-21T18:56:04.806Z,60.30
2023-05-21T18:59:51.984Z,60.40
2023-05-21T19:03:37.948Z,60.40
2023-05-21T19:07:27.260Z,60.50
2023-05-21T19:11:14.100Z,60.40
2023-05-21T19:15:01.679Z,60.50
2023-05-21T19:18:48.839Z,60.50
2023-05-21T19:22:34.911Z,60.50
2023-05-21T19:26:17.082Z,60.60
2023-05-21T19:30:05.051Z,60.60
2023-05-21T19:33:47.963Z,60.60
2023-05-21T19:37:35.640Z,60.60
2023-05-21T19:41:18.751Z,60.70
2023-05-21T19:45:08.156Z,60.70
2023-05-21T19:48:50.988Z,60.80
2023-05-21T19:52:37.844Z,60.70
2023-05-21T19:56:19.621Z,60.70
2023-05-21T20:00:04.359Z,60.70
2023-05-21T20:03:52.258Z,60.80
2023-05-21T20:07:34.094Z,60.80
2023-05-21T20:11:16.166Z,60.80
2023-05-21T20:15:03.102Z,60.90
2023-05-21T20:18:50.131Z,60.90
2023-05-21T20:22:32.059Z,60.90
2023-05-21T20:26:19.351Z,60.80
2023-05-21T20:30:07.898Z,60.90
2023-05-21T20:33:55.852Z,61.00
2023-05-21T20:37:42.913Z,61.00
2023-05-21T20:41:30.594Z,61.00
2023-05-21T20:45:21.194Z,61.10
2023-05-21T20:49:13.118Z,61.10
2023-05-21T20:53:00.479Z,61.10
2023-05-21T20:56:48.546Z,61.10
2023-05-21T21:00:31.774Z,61.10
2023-05-21T21:04:24.198Z,61.00
2023-05-21T21:08:11.327Z,61.00
2023-05-21T21:11:53.077Z,61.10
2023-05-21T21:15:42.940Z,61.10
2023-05-21T21:19:32.526Z,61.20
2023-05-21T21:23:19.211Z,61.00
2023-05-21T21:27:06.124Z,61.10
2023-05-21T21:30:54.391Z,61.10
2023-05-21T21:34:41.607Z,61.10
2023-05-21T21:38:28.522Z,61.10
2023-05-21T21:42:15.455Z,61.20
2023-05-21T21:46:02.523Z,61.10
2023-05-21T21:49:51.934Z,61.20
2023-05-21T21:53:39.808Z,61.10
2023-05-21T21:57:26.702Z,61.10
2023-05-21T22:01:11.915Z,61.20
2023-05-21T22:04:58.125Z,61.20
2023-05-21T22:08:45.395Z,61.20
2023-05-21T22:12:32.658Z,61.10
2023-05-21T22:16:18.851Z,61.20
2023-05-21T22:20:05.347Z,61.10
2023-05-21T22:23:51.773Z,61.10
2023-05-21T22:27:39.165Z,61.20
2023-05-21T22:31:25.900Z,61.20
2023-05-21T22:35:14.457Z,61.20
2023-05-21T22:39:01.274Z,61.20
2023-05-21T22:42:49.954Z,61.20
2023-05-21T22:46:38.584Z,61.20
2023-05-21T22:50:24.820Z,61.10
2023-05-21T22:54:11.614Z,61.10
2023-05-21T22:57:59.053Z,61.10
2023-05-21T23:01:44.751Z,61.10
2023-05-21T23:05:29.080Z,61.10
2023-05-21T23:09:15.022Z,61.10
2023-05-21T23:13:01.248Z,61.10
2023-05-21T23:16:46.382Z,61.00
2023-05-21T23:20:34.083Z,61.10
2023-05-21T23:24:21.332Z,61.00
2023-05-21T23:28:08.069Z,61.00
2023-05-21T23:31:53.898Z,61.00
2023-05-21T23:35:39.046Z,61.00
2023-05-21T23:39:25.751Z,61.00
2023-05-21T23:43:10.264Z,61.00
2023-05-21T23:46:59.752Z,61.00
2023-05-21T23:50:46.950Z,60.90
2023-05-21T23:54:34.222Z,60.90
2023-05-21T23:58:21.423Z,61.00
